sensor_id;sensor_type;location;lat;lon;timestamp;pressure;altitude;pressure_sealevel;temperature;humidity
21395;BME280;10858;42.714;23.180;2022-12-05T00:00:00;95321.88;;;7.73;77.93
21395;BME280;10858;42.714;23.180;2022-12-05T00:02:26;95321.50;;;7.65;78.20
21395;BME280;10858;42.714;23.180;2022-12-05T00:04:52;95321.28;;;7.82;78.05
21395;BME280;10858;42.714;23.180;2022-12-05T00:07:19;95320.16;;;7.86;77.53
21395;BME280;10858;42.714;23.180;2022-12-05T00:09:45;95317.34;;;7.75;77.92
21395;BME280;10858;42.714;23.180;2022-12-05T00:12:11;95318.47;;;7.85;77.62
21395;BME280;10858;42.714;23.180;2022-12-05T00:14:37;95324.16;;;7.79;77.66
21395;BME280;10858;42.714;23.180;2022-12-05T00:17:03;95330.34;;;7.78;77.89
21395;BME280;10858;42.714;23.180;2022-12-05T00:19:30;95325.47;;;7.72;77.79
21395;BME280;10858;42.714;23.180;2022-12-05T00:21:56;95337.34;;;7.65;78.08
21395;BME280;10858;42.714;23.180;2022-12-05T00:24:22;95330.19;;;7.67;78.20
21395;BME280;10858;42.714;23.180;2022-12-05T00:26:49;95338.66;;;7.72;77.86
21395;BME280;10858;42.714;23.180;2022-12-05T00:29:15;95340.00;;;7.79;77.95
21395;BME280;10858;42.714;23.180;2022-12-05T00:31:41;95342.25;;;7.71;78.12
21395;BME280;10858;42.714;23.180;2022-12-05T00:34:08;95348.47;;;7.84;78.28
21395;BME280;10858;42.714;23.180;2022-12-05T00:36:35;95338.53;;;8.02;77.50
21395;BME280;10858;42.714;23.180;2022-12-05T00:39:08;95334.97;;;7.89;77.55
21395;BME280;10858;42.714;23.180;2022-12-05T00:41:34;95337.50;;;7.90;77.72
21395;BME280;10858;42.714;23.180;2022-12-05T00:44:01;95341.94;;;7.90;77.92
21395;BME280;10858;42.714;23.180;2022-12-05T00:46:30;95340.72;;;7.95;77.83
21395;BME280;10858;42.714;23.180;2022-12-05T00:48:58;95339.28;;;8.04;77.36
21395;BME280;10858;42.714;23.180;2022-12-05T00:51:30;95336.28;;;7.96;77.46
21395;BME280;10858;42.714;23.180;2022-12-05T00:53:59;95325.63;;;8.11;77.33
21395;BME280;10858;42.714;23.180;2022-12-05T00:56:28;95318.44;;;8.27;76.14
21395;BME280;10858;42.714;23.180;2022-12-05T00:58:55;95317.00;;;8.08;76.77
21395;BME280;10858;42.714;23.180;2022-12-05T01:01:31;95321.66;;;7.90;77.03
21395;BME280;10858;42.714;23.180;2022-12-05T01:04:00;95324.03;;;7.95;77.16
21395;BME280;10858;42.714;23.180;2022-12-05T01:06:28;95313.72;;;8.04;76.81
21395;BME280;10858;42.714;23.180;2022-12-05T01:08:55;95304.31;;;7.86;76.35
21395;BME280;10858;42.714;23.180;2022-12-05T01:11:22;95305.94;;;7.74;77.22
21395;BME280;10858;42.714;23.180;2022-12-05T01:13:49;95307.81;;;7.72;77.67
21395;BME280;10858;42.714;23.180;2022-12-05T01:18:50;95299.81;;;7.74;77.19
21395;BME280;10858;42.714;23.180;2022-12-05T01:21:16;95298.88;;;7.61;77.97
21395;BME280;10858;42.714;23.180;2022-12-05T01:23:43;95301.16;;;7.53;78.37
21395;BME280;10858;42.714;23.180;2022-12-05T01:26:13;95300.78;;;7.59;78.36
21395;BME280;10858;42.714;23.180;2022-12-05T01:28:40;95300.94;;;7.56;77.99
21395;BME280;10858;42.714;23.180;2022-12-05T01:31:17;95298.97;;;7.59;78.18
21395;BME280;10858;42.714;23.180;2022-12-05T01:33:46;95300.56;;;7.62;77.51
21395;BME280;10858;42.714;23.180;2022-12-05T01:36:12;95292.47;;;7.51;78.27
21395;BME280;10858;42.714;23.180;2022-12-05T01:38:40;95287.09;;;7.52;78.03
21395;BME280;10858;42.714;23.180;2022-12-05T01:41:10;95285.47;;;7.50;78.11
21395;BME280;10858;42.714;23.180;2022-12-05T01:43:57;95293.22;;;7.39;78.54
21395;BME280;10858;42.714;23.180;2022-12-05T01:46:25;95294.22;;;7.08;79.65
21395;BME280;10858;42.714;23.180;2022-12-05T01:48:54;95296.75;;;7.10;80.04
21395;BME280;10858;42.714;23.180;2022-12-05T01:51:22;95292.94;;;7.43;79.17
21395;BME280;10858;42.714;23.180;2022-12-05T01:53:49;95294.53;;;7.60;78.26
21395;BME280;10858;42.714;23.180;2022-12-05T01:56:16;95298.78;;;7.48;78.38
21395;BME280;10858;42.714;23.180;2022-12-05T01:58:44;95294.25;;;7.36;78.94
21395;BME280;10858;42.714;23.180;2022-12-05T02:01:12;95299.44;;;7.24;79.41
21395;BME280;10858;42.714;23.180;2022-12-05T02:03:40;95291.72;;;7.35;79.33
21395;BME280;10858;42.714;23.180;2022-12-05T02:06:08;95292.47;;;7.51;78.68
21395;BME280;10858;42.714;23.180;2022-12-05T02:08:36;95294.91;;;7.54;78.29
21395;BME280;10858;42.714;23.180;2022-12-05T02:11:02;95301.41;;;7.62;77.95
21395;BME280;10858;42.714;23.180;2022-12-05T02:24:50;95283.78;;;7.21;79.19
21395;BME280;10858;42.714;23.180;2022-12-05T02:30:00;95287.34;;;7.20;80.36
21395;BME280;10858;42.714;23.180;2022-12-05T02:38:28;95280.78;;;7.13;79.89
21395;BME280;10858;42.714;23.180;2022-12-05T02:41:31;95277.84;;;7.03;80.18
21395;BME280;10858;42.714;23.180;2022-12-05T02:44:06;95284.91;;;7.17;80.23
21395;BME280;10858;42.714;23.180;2022-12-05T02:46:37;95281.06;;;7.22;79.74
21395;BME280;10858;42.714;23.180;2022-12-05T02:49:08;95283.41;;;7.27;79.55
21395;BME280;10858;42.714;23.180;2022-12-05T02:51:43;95287.00;;;7.40;79.01
21395;BME280;10858;42.714;23.180;2022-12-05T02:54:20;95283.69;;;7.36;78.91
21395;BME280;10858;42.714;23.180;2022-12-05T02:56:49;95276.25;;;7.43;78.74
21395;BME280;10858;42.714;23.180;2022-12-05T02:59:17;95279.75;;;7.57;78.50
21395;BME280;10858;42.714;23.180;2022-12-05T03:01:45;95273.72;;;7.55;78.52
21395;BME280;10858;42.714;23.180;2022-12-05T03:04:13;95270.59;;;7.63;78.37
21395;BME280;10858;42.714;23.180;2022-12-05T03:06:53;95274.88;;;7.78;78.30
21395;BME280;10858;42.714;23.180;2022-12-05T03:12:26;95271.31;;;7.79;77.50
21395;BME280;10858;42.714;23.180;2022-12-05T03:17:32;95273.59;;;7.71;77.39
21395;BME280;10858;42.714;23.180;2022-12-05T03:20:18;95279.81;;;7.56;77.65
21395;BME280;10858;42.714;23.180;2022-12-05T03:25:29;95282.53;;;7.83;77.74
21395;BME280;10858;42.714;23.180;2022-12-05T03:28:20;95275.94;;;8.16;76.04
21395;BME280;10858;42.714;23.180;2022-12-05T03:30:51;95272.00;;;8.09;75.89
21395;BME280;10858;42.714;23.180;2022-12-05T03:33:28;95277.09;;;8.12;75.77
21395;BME280;10858;42.714;23.180;2022-12-05T03:36:22;95276.66;;;7.92;76.42
21395;BME280;10858;42.714;23.180;2022-12-05T03:41:46;95278.53;;;7.90;76.66
21395;BME280;10858;42.714;23.180;2022-12-05T03:44:35;95280.56;;;7.72;77.46
21395;BME280;10858;42.714;23.180;2022-12-05T03:47:16;95278.66;;;7.74;77.95
21395;BME280;10858;42.714;23.180;2022-12-05T03:49:56;95268.16;;;8.01;76.95
21395;BME280;10858;42.714;23.180;2022-12-05T03:52:43;95273.34;;;8.02;76.74
21395;BME280;10858;42.714;23.180;2022-12-05T03:55:13;95271.50;;;8.17;76.12
21395;BME280;10858;42.714;23.180;2022-12-05T03:58:00;95274.44;;;8.12;76.33
21395;BME280;10858;42.714;23.180;2022-12-05T04:00:31;95275.09;;;8.16;76.11
21395;BME280;10858;42.714;23.180;2022-12-05T04:03:14;95271.44;;;8.04;76.26
21395;BME280;10858;42.714;23.180;2022-12-05T04:05:51;95271.91;;;8.11;76.06
21395;BME280;10858;42.714;23.180;2022-12-05T04:08:24;95265.19;;;8.19;75.72
21395;BME280;10858;42.714;23.180;2022-12-05T04:10:57;95264.22;;;8.20;75.28
21395;BME280;10858;42.714;23.180;2022-12-05T04:13:38;95264.25;;;8.06;75.88
21395;BME280;10858;42.714;23.180;2022-12-05T04:16:30;95254.56;;;8.07;76.16
21395;BME280;10858;42.714;23.180;2022-12-05T04:21:48;95263.31;;;7.52;77.82
21395;BME280;10858;42.714;23.180;2022-12-05T04:24:20;95259.47;;;7.44;79.07
21395;BME280;10858;42.714;23.180;2022-12-05T04:27:22;95254.47;;;7.94;77.05
21395;BME280;10858;42.714;23.180;2022-12-05T04:30:14;95259.97;;;7.91;76.80
21395;BME280;10858;42.714;23.180;2022-12-05T04:32:45;95256.75;;;7.86;76.98
21395;BME280;10858;42.714;23.180;2022-12-05T04:35:42;95270.84;;;7.87;77.05
21395;BME280;10858;42.714;23.180;2022-12-05T04:38:23;95264.94;;;7.69;77.88
21395;BME280;10858;42.714;23.180;2022-12-05T04:40:59;95271.50;;;7.76;77.66
21395;BME280;10858;42.714;23.180;2022-12-05T04:43:29;95276.00;;;7.88;77.15
21395;BME280;10858;42.714;23.180;2022-12-05T04:45:59;95267.66;;;8.08;76.89
21395;BME280;10858;42.714;23.180;2022-12-05T04:48:29;95268.22;;;8.27;76.05
21395;BME280;10858;42.714;23.180;2022-12-05T04:50:56;95269.72;;;8.17;76.18
21395;BME280;10858;42.714;23.180;2022-12-05T04:53:27;95273.50;;;8.13;76.27
21395;BME280;10858;42.714;23.180;2022-12-05T04:55:56;95274.25;;;8.29;75.59
21395;BME280;10858;42.714;23.180;2022-12-05T04:58:25;95274.78;;;8.34;75.07
21395;BME280;10858;42.714;23.180;2022-12-05T05:03:41;95273.47;;;7.87;77.08
21395;BME280;10858;42.714;23.180;2022-12-05T05:06:11;95284.59;;;7.78;77.34
21395;BME280;10858;42.714;23.180;2022-12-05T05:08:49;95289.47;;;7.98;77.14
21395;BME280;10858;42.714;23.180;2022-12-05T05:11:24;95298.47;;;7.95;77.13
21395;BME280;10858;42.714;23.180;2022-12-05T05:13:51;95288.22;;;8.17;76.41
21395;BME280;10858;42.714;23.180;2022-12-05T05:16:23;95298.84;;;8.30;75.52
21395;BME280;10858;42.714;23.180;2022-12-05T05:18:50;95295.94;;;8.34;74.96
21395;BME280;10858;42.714;23.180;2022-12-05T05:21:30;95304.09;;;8.17;75.65
21395;BME280;10858;42.714;23.180;2022-12-05T05:23:56;95305.38;;;8.24;75.63
21395;BME280;10858;42.714;23.180;2022-12-05T05:26:24;95299.44;;;8.35;75.29
21395;BME280;10858;42.714;23.180;2022-12-05T05:28:51;95305.66;;;8.34;75.11
21395;BME280;10858;42.714;23.180;2022-12-05T05:31:18;95308.78;;;8.26;75.45
21395;BME280;10858;42.714;23.180;2022-12-05T05:33:48;95311.63;;;8.23;75.49
21395;BME280;10858;42.714;23.180;2022-12-05T05:36:15;95309.16;;;8.20;75.41
21395;BME280;10858;42.714;23.180;2022-12-05T05:38:44;95310.00;;;8.21;75.61
21395;BME280;10858;42.714;23.180;2022-12-05T05:41:18;95308.50;;;8.17;75.72
21395;BME280;10858;42.714;23.180;2022-12-05T05:43:46;95317.56;;;8.13;76.10
21395;BME280;10858;42.714;23.180;2022-12-05T05:46:13;95314.81;;;8.14;75.91
21395;BME280;10858;42.714;23.180;2022-12-05T05:48:40;95317.47;;;8.28;75.91
21395;BME280;10858;42.714;23.180;2022-12-05T05:51:10;95316.56;;;8.42;75.44
21395;BME280;10858;42.714;23.180;2022-12-05T05:53:36;95317.81;;;8.36;75.03
21395;BME280;10858;42.714;23.180;2022-12-05T05:56:08;95316.91;;;8.37;75.16
21395;BME280;10858;42.714;23.180;2022-12-05T05:58:35;95326.09;;;8.44;75.50
21395;BME280;10858;42.714;23.180;2022-12-05T06:01:15;95318.47;;;8.67;74.37
21395;BME280;10858;42.714;23.180;2022-12-05T06:03:42;95321.56;;;8.73;73.76
21395;BME280;10858;42.714;23.180;2022-12-05T06:06:11;95327.78;;;8.60;74.31
21395;BME280;10858;42.714;23.180;2022-12-05T06:08:40;95325.59;;;8.52;74.64
21395;BME280;10858;42.714;23.180;2022-12-05T06:11:12;95324.66;;;8.26;75.38
21395;BME280;10858;42.714;23.180;2022-12-05T06:13:38;95324.09;;;8.21;76.26
21395;BME280;10858;42.714;23.180;2022-12-05T06:16:06;95327.22;;;8.54;75.58
21395;BME280;10858;42.714;23.180;2022-12-05T06:18:33;95320.19;;;8.68;74.85
21395;BME280;10858;42.714;23.180;2022-12-05T06:21:00;95323.06;;;8.77;74.48
21395;BME280;10858;42.714;23.180;2022-12-05T06:23:27;95318.34;;;8.55;74.51
21395;BME280;10858;42.714;23.180;2022-12-05T06:25:55;95325.22;;;8.31;75.59
21395;BME280;10858;42.714;23.180;2022-12-05T06:28:23;95324.47;;;8.29;76.30
21395;BME280;10858;42.714;23.180;2022-12-05T06:30:50;95326.16;;;8.30;76.35
21395;BME280;10858;42.714;23.180;2022-12-05T06:33:16;95331.03;;;8.36;75.94
21395;BME280;10858;42.714;23.180;2022-12-05T06:35:43;95329.97;;;8.53;75.66
21395;BME280;10858;42.714;23.180;2022-12-05T06:38:10;95334.59;;;8.49;75.32
21395;BME280;10858;42.714;23.180;2022-12-05T06:40:41;95336.59;;;8.73;74.92
21395;BME280;10858;42.714;23.180;2022-12-05T06:43:07;95332.28;;;8.84;73.97
21395;BME280;10858;42.714;23.180;2022-12-05T06:45:36;95334.03;;;8.71;73.95
21395;BME280;10858;42.714;23.180;2022-12-05T06:48:02;95328.16;;;8.53;75.04
21395;BME280;10858;42.714;23.180;2022-12-05T06:50:28;95334.78;;;8.73;74.15
21395;BME280;10858;42.714;23.180;2022-12-05T06:52:54;95333.41;;;8.68;73.71
21395;BME280;10858;42.714;23.180;2022-12-05T06:55:20;95341.75;;;8.74;74.16
21395;BME280;10858;42.714;23.180;2022-12-05T06:57:46;95341.28;;;8.82;74.27
21395;BME280;10858;42.714;23.180;2022-12-05T07:00:13;95335.47;;;9.02;73.21
21395;BME280;10858;42.714;23.180;2022-12-05T07:02:58;95335.03;;;8.83;73.87
21395;BME280;10858;42.714;23.180;2022-12-05T07:05:24;95338.00;;;8.91;73.31
21395;BME280;10858;42.714;23.180;2022-12-05T07:07:50;95338.38;;;8.72;74.37
21395;BME280;10858;42.714;23.180;2022-12-05T07:10:17;95338.41;;;8.85;73.87
21395;BME280;10858;42.714;23.180;2022-12-05T07:12:43;95341.38;;;9.19;73.16
21395;BME280;10858;42.714;23.180;2022-12-05T07:15:09;95341.44;;;9.18;71.82
21395;BME280;10858;42.714;23.180;2022-12-05T07:17:37;95343.53;;;9.00;72.17
21395;BME280;10858;42.714;23.180;2022-12-05T07:20:05;95344.38;;;9.01;72.96
21395;BME280;10858;42.714;23.180;2022-12-05T07:22:33;95346.97;;;9.40;71.21
21395;BME280;10858;42.714;23.180;2022-12-05T07:24:59;95347.75;;;9.55;70.64
21395;BME280;10858;42.714;23.180;2022-12-05T07:27:26;95357.78;;;9.37;70.32
21395;BME280;10858;42.714;23.180;2022-12-05T07:29:52;95352.00;;;9.57;70.66
21395;BME280;10858;42.714;23.180;2022-12-05T07:32:18;95353.16;;;9.66;70.05
21395;BME280;10858;42.714;23.180;2022-12-05T07:34:45;95352.19;;;9.54;69.74
21395;BME280;10858;42.714;23.180;2022-12-05T07:37:11;95354.63;;;9.57;69.87
21395;BME280;10858;42.714;23.180;2022-12-05T07:39:38;95356.00;;;9.37;70.58
21395;BME280;10858;42.714;23.180;2022-12-05T07:42:05;95353.25;;;9.39;70.70
21395;BME280;10858;42.714;23.180;2022-12-05T07:44:31;95354.25;;;9.24;71.71
21395;BME280;10858;42.714;23.180;2022-12-05T07:46:58;95354.72;;;9.43;70.93
21395;BME280;10858;42.714;23.180;2022-12-05T07:49:24;95351.25;;;9.55;70.34
21395;BME280;10858;42.714;23.180;2022-12-05T07:51:50;95351.34;;;9.54;70.43
21395;BME280;10858;42.714;23.180;2022-12-05T07:54:17;95358.44;;;9.53;71.13
21395;BME280;10858;42.714;23.180;2022-12-05T07:56:43;95358.97;;;9.58;70.88
21395;BME280;10858;42.714;23.180;2022-12-05T07:59:10;95349.75;;;9.51;71.55
21395;BME280;10858;42.714;23.180;2022-12-05T08:01:36;95357.72;;;9.51;70.20
21395;BME280;10858;42.714;23.180;2022-12-05T08:04:02;95358.44;;;9.53;70.52
21395;BME280;10858;42.714;23.180;2022-12-05T08:06:29;95357.59;;;9.65;70.36
21395;BME280;10858;42.714;23.180;2022-12-05T08:08:56;95362.91;;;9.78;69.50
21395;BME280;10858;42.714;23.180;2022-12-05T08:11:28;95366.16;;;9.56;69.93
21395;BME280;10858;42.714;23.180;2022-12-05T08:13:55;95363.53;;;9.56;70.75
21395;BME280;10858;42.714;23.180;2022-12-05T08:16:25;95361.28;;;9.50;70.39
21395;BME280;10858;42.714;23.180;2022-12-05T08:19:05;95354.59;;;9.32;71.28
21395;BME280;10858;42.714;23.180;2022-12-05T08:21:32;95356.09;;;9.36;71.61
21395;BME280;10858;42.714;23.180;2022-12-05T08:23:59;95356.28;;;9.20;71.48
21395;BME280;10858;42.714;23.180;2022-12-05T08:26:28;95364.94;;;8.97;72.72
21395;BME280;10858;42.714;23.180;2022-12-05T08:29:00;95352.41;;;8.87;73.56
21395;BME280;10858;42.714;23.180;2022-12-05T08:31:28;95350.22;;;8.67;73.64
21395;BME280;10858;42.714;23.180;2022-12-05T08:33:59;95353.91;;;8.37;74.81
21395;BME280;10858;42.714;23.180;2022-12-05T08:36:27;95352.91;;;8.52;74.87
21395;BME280;10858;42.714;23.180;2022-12-05T08:38:58;95352.63;;;8.84;73.66
21395;BME280;10858;42.714;23.180;2022-12-05T08:41:25;95352.22;;;8.90;74.08
21395;BME280;10858;42.714;23.180;2022-12-05T08:43:55;95354.28;;;8.85;73.91
21395;BME280;10858;42.714;23.180;2022-12-05T08:46:22;95361.06;;;8.89;73.27
21395;BME280;10858;42.714;23.180;2022-12-05T08:48:48;95364.75;;;9.13;73.24
21395;BME280;10858;42.714;23.180;2022-12-05T08:51:14;95366.19;;;8.92;72.52
21395;BME280;10858;42.714;23.180;2022-12-05T08:53:40;95362.16;;;8.99;72.45
21395;BME280;10858;42.714;23.180;2022-12-05T08:56:08;95366.84;;;9.08;72.20
21395;BME280;10858;42.714;23.180;2022-12-05T08:58:34;95362.22;;;9.11;71.77
21395;BME280;10858;42.714;23.180;2022-12-05T09:01:12;95358.44;;;8.89;72.53
21395;BME280;10858;42.714;23.180;2022-12-05T09:03:40;95356.25;;;9.08;72.35
21395;BME280;10858;42.714;23.180;2022-12-05T09:06:15;95369.66;;;9.44;72.19
21395;BME280;10858;42.714;23.180;2022-12-05T09:08:42;95374.00;;;9.32;71.43
21395;BME280;10858;42.714;23.180;2022-12-05T09:11:12;95360.94;;;9.17;71.27
21395;BME280;10858;42.714;23.180;2022-12-05T09:13:38;95355.97;;;9.25;71.98
21395;BME280;10858;42.714;23.180;2022-12-05T09:16:11;95362.16;;;9.63;71.11
21395;BME280;10858;42.714;23.180;2022-12-05T09:18:37;95356.00;;;9.75;69.26
21395;BME280;10858;42.714;23.180;2022-12-05T09:21:11;95349.44;;;9.43;70.37
21395;BME280;10858;42.714;23.180;2022-12-05T09:23:38;95351.88;;;9.33;70.90
21395;BME280;10858;42.714;23.180;2022-12-05T09:26:06;95348.44;;;9.19;71.39
21395;BME280;10858;42.714;23.180;2022-12-05T09:28:33;95352.03;;;9.18;72.54
21395;BME280;10858;42.714;23.180;2022-12-05T09:31:01;95348.16;;;9.49;71.02
21395;BME280;10858;42.714;23.180;2022-12-05T09:33:29;95349.75;;;9.38;70.54
21395;BME280;10858;42.714;23.180;2022-12-05T09:35:56;95341.50;;;9.43;71.22
21395;BME280;10858;42.714;23.180;2022-12-05T09:38:24;95339.91;;;9.66;70.38
21395;BME280;10858;42.714;23.180;2022-12-05T09:44:04;95339.81;;;9.80;69.53
21395;BME280;10858;42.714;23.180;2022-12-05T09:46:51;95324.09;;;9.89;68.82
21395;BME280;10858;42.714;23.180;2022-12-05T09:49:20;95326.44;;;9.81;69.12
21395;BME280;10858;42.714;23.180;2022-12-05T09:51:48;95322.19;;;9.91;69.13
21395;BME280;10858;42.714;23.180;2022-12-05T09:54:16;95319.31;;;9.94;68.93
21395;BME280;10858;42.714;23.180;2022-12-05T09:56:43;95311.88;;;9.99;69.22
21395;BME280;10858;42.714;23.180;2022-12-05T09:59:14;95310.59;;;10.17;69.28
21395;BME280;10858;42.714;23.180;2022-12-05T10:12:37;95305.34;;;10.41;68.56
21395;BME280;10858;42.714;23.180;2022-12-05T10:15:29;95305.50;;;10.14;68.62
21395;BME280;10858;42.714;23.180;2022-12-05T10:18:00;95303.88;;;10.24;68.40
21395;BME280;10858;42.714;23.180;2022-12-05T10:20:39;95299.63;;;10.35;67.95
21395;BME280;10858;42.714;23.180;2022-12-05T10:23:45;95294.25;;;10.23;67.98
21395;BME280;10858;42.714;23.180;2022-12-05T10:26:08;95304.03;;;10.10;68.48
21395;BME280;10858;42.714;23.180;2022-12-05T10:28:46;95291.94;;;10.19;68.13
21395;BME280;10858;42.714;23.180;2022-12-05T10:31:17;95299.25;;;10.15;67.99
21395;BME280;10858;42.714;23.180;2022-12-05T10:33:50;95295.56;;;9.93;69.34
21395;BME280;10858;42.714;23.180;2022-12-05T10:36:18;95285.47;;;10.10;69.84
21395;BME280;10858;42.714;23.180;2022-12-05T10:38:44;95292.91;;;9.93;69.01
21395;BME280;10858;42.714;23.180;2022-12-05T10:41:12;95271.16;;;10.00;67.85
21395;BME280;10858;42.714;23.180;2022-12-05T10:43:44;95284.81;;;10.07;68.34
21395;BME280;10858;42.714;23.180;2022-12-05T10:46:12;95281.38;;;9.94;68.88
21395;BME280;10858;42.714;23.180;2022-12-05T10:48:40;95279.03;;;9.89;68.75
21395;BME280;10858;42.714;23.180;2022-12-05T10:51:13;95282.56;;;9.77;68.63
21395;BME280;10858;42.714;23.180;2022-12-05T10:56:45;95279.66;;;9.93;68.81
21395;BME280;10858;42.714;23.180;2022-12-05T10:59:18;95273.81;;;10.13;68.13
21395;BME280;10858;42.714;23.180;2022-12-05T11:01:52;95274.53;;;10.02;69.28
21395;BME280;10858;42.714;23.180;2022-12-05T11:04:24;95265.41;;;10.06;68.44
21395;BME280;10858;42.714;23.180;2022-12-05T11:06:59;95271.84;;;9.91;68.67
21395;BME280;10858;42.714;23.180;2022-12-05T11:09:31;95265.09;;;10.23;68.21
21395;BME280;10858;42.714;23.180;2022-12-05T11:14:31;95251.56;;;9.90;68.08
21395;BME280;10858;42.714;23.180;2022-12-05T11:17:01;95259.38;;;10.04;68.32
21395;BME280;10858;42.714;23.180;2022-12-05T11:19:33;95256.41;;;10.09;67.98
21395;BME280;10858;42.714;23.180;2022-12-05T11:22:01;95253.88;;;10.20;67.52
21395;BME280;10858;42.714;23.180;2022-12-05T11:24:32;95258.31;;;10.19;67.58
21395;BME280;10858;42.714;23.180;2022-12-05T11:27:17;95255.78;;;10.42;67.71
21395;BME280;10858;42.714;23.180;2022-12-05T11:32:27;95237.22;;;10.42;66.58
21395;BME280;10858;42.714;23.180;2022-12-05T11:37:49;95231.41;;;10.00;68.39
21395;BME280;10858;42.714;23.180;2022-12-05T11:42:58;95224.63;;;9.96;68.52
21395;BME280;10858;42.714;23.180;2022-12-05T11:53:50;95214.00;;;9.60;70.75
21395;BME280;10858;42.714;23.180;2022-12-05T11:56:36;95202.91;;;9.68;69.82
21395;BME280;10858;42.714;23.180;2022-12-05T12:10:39;95198.78;;;10.47;67.64
21395;BME280;10858;42.714;23.180;2022-12-05T12:31:48;95173.91;;;9.41;70.24
21395;BME280;10858;42.714;23.180;2022-12-05T12:34:32;95170.72;;;9.36;71.25
21395;BME280;10858;42.714;23.180;2022-12-05T12:42:47;95177.97;;;9.70;70.78
21395;BME280;10858;42.714;23.180;2022-12-05T12:48:25;95168.94;;;9.36;71.10
21395;BME280;10858;42.714;23.180;2022-12-05T12:50:54;95172.22;;;9.40;71.27
21395;BME280;10858;42.714;23.180;2022-12-05T12:56:35;95164.06;;;9.43;71.40
21395;BME280;10858;42.714;23.180;2022-12-05T12:59:13;95168.78;;;9.63;71.11
21395;BME280;10858;42.714;23.180;2022-12-05T13:01:56;95164.81;;;9.45;71.11
21395;BME280;10858;42.714;23.180;2022-12-05T13:04:29;95167.63;;;9.55;70.68
21395;BME280;10858;42.714;23.180;2022-12-05T13:07:09;95159.41;;;9.70;70.99
21395;BME280;10858;42.714;23.180;2022-12-05T13:10:05;95161.41;;;9.56;70.29
21395;BME280;10858;42.714;23.180;2022-12-05T13:12:37;95163.75;;;9.35;71.76
21395;BME280;10858;42.714;23.180;2022-12-05T13:15:14;95166.53;;;9.33;71.78
21395;BME280;10858;42.714;23.180;2022-12-05T13:17:44;95171.72;;;9.35;72.09
21395;BME280;10858;42.714;23.180;2022-12-05T13:20:21;95170.00;;;9.34;72.11
21395;BME280;10858;42.714;23.180;2022-12-05T13:22:53;95176.16;;;9.22;71.74
21395;BME280;10858;42.714;23.180;2022-12-05T13:25:22;95176.69;;;9.02;73.01
21395;BME280;10858;42.714;23.180;2022-12-05T13:27:59;95176.41;;;8.94;72.71
21395;BME280;10858;42.714;23.180;2022-12-05T13:30:27;95177.56;;;8.90;73.26
21395;BME280;10858;42.714;23.180;2022-12-05T13:33:02;95176.69;;;9.27;72.40
21395;BME280;10858;42.714;23.180;2022-12-05T13:35:33;95176.38;;;9.19;72.34
21395;BME280;10858;42.714;23.180;2022-12-05T13:38:33;95183.28;;;9.21;72.26
21395;BME280;10858;42.714;23.180;2022-12-05T13:41:20;95176.91;;;8.86;73.14
21395;BME280;10858;42.714;23.180;2022-12-05T13:44:05;95171.63;;;8.99;73.19
21395;BME280;10858;42.714;23.180;2022-12-05T13:46:39;95173.44;;;8.86;73.41
21395;BME280;10858;42.714;23.180;2022-12-05T13:49:14;95171.94;;;9.07;73.37
21395;BME280;10858;42.714;23.180;2022-12-05T13:51:43;95176.69;;;9.02;73.08
21395;BME280;10858;42.714;23.180;2022-12-05T13:54:23;95182.53;;;9.07;73.11
21395;BME280;10858;42.714;23.180;2022-12-05T13:56:56;95172.25;;;9.15;73.06
21395;BME280;10858;42.714;23.180;2022-12-05T14:07:44;95173.44;;;8.98;73.66
21395;BME280;10858;42.714;23.180;2022-12-05T14:13:01;95175.75;;;8.90;73.74
21395;BME280;10858;42.714;23.180;2022-12-05T14:15:29;95186.34;;;9.03;73.32
21395;BME280;10858;42.714;23.180;2022-12-05T14:34:29;95192.16;;;8.57;75.22
21395;BME280;10858;42.714;23.180;2022-12-05T14:37:05;95181.75;;;8.54;75.04
21395;BME280;10858;42.714;23.180;2022-12-05T14:39:39;95187.28;;;8.64;74.80
21395;BME280;10858;42.714;23.180;2022-12-05T14:44:56;95190.47;;;8.82;74.63
21395;BME280;10858;42.714;23.180;2022-12-05T14:47:27;95190.06;;;8.75;74.52
21395;BME280;10858;42.714;23.180;2022-12-05T14:52:29;95191.13;;;8.85;74.57
21395;BME280;10858;42.714;23.180;2022-12-05T14:55:10;95190.91;;;8.76;74.38
21395;BME280;10858;42.714;23.180;2022-12-05T14:57:45;95195.28;;;8.50;75.30
21395;BME280;10858;42.714;23.180;2022-12-05T15:00:22;95193.97;;;8.70;74.79
21395;BME280;10858;42.714;23.180;2022-12-05T15:02:51;95190.03;;;8.63;75.14
21395;BME280;10858;42.714;23.180;2022-12-05T15:05:29;95191.72;;;8.76;74.72
21395;BME280;10858;42.714;23.180;2022-12-05T15:07:57;95188.03;;;8.79;74.56
21395;BME280;10858;42.714;23.180;2022-12-05T15:10:32;95191.94;;;8.73;74.73
21395;BME280;10858;42.714;23.180;2022-12-05T15:13:13;95193.75;;;8.73;74.64
21395;BME280;10858;42.714;23.180;2022-12-05T15:15:51;95190.25;;;8.60;75.16
21395;BME280;10858;42.714;23.180;2022-12-05T15:23:40;95183.25;;;8.58;74.76
21395;BME280;10858;42.714;23.180;2022-12-05T15:29:09;95175.88;;;8.89;73.89
21395;BME280;10858;42.714;23.180;2022-12-05T15:37:03;95170.16;;;8.82;74.35
21395;BME280;10858;42.714;23.180;2022-12-05T15:42:15;95175.88;;;8.89;74.27
21395;BME280;10858;42.714;23.180;2022-12-05T15:44:41;95177.69;;;8.76;74.85
21395;BME280;10858;42.714;23.180;2022-12-05T15:47:24;95179.03;;;8.69;75.04
21395;BME280;10858;42.714;23.180;2022-12-05T15:49:51;95179.25;;;8.66;75.46
21395;BME280;10858;42.714;23.180;2022-12-05T15:52:28;95179.25;;;8.78;75.38
21395;BME280;10858;42.714;23.180;2022-12-05T15:55:02;95173.53;;;8.84;74.60
21395;BME280;10858;42.714;23.180;2022-12-05T15:57:45;95172.91;;;8.81;75.04
21395;BME280;10858;42.714;23.180;2022-12-05T16:00:16;95176.81;;;8.75;74.93
21395;BME280;10858;42.714;23.180;2022-12-05T16:02:57;95177.69;;;8.76;75.43
21395;BME280;10858;42.714;23.180;2022-12-05T16:05:49;95176.09;;;8.86;74.69
21395;BME280;10858;42.714;23.180;2022-12-05T16:08:17;95182.00;;;8.89;74.93